sensor_id;sensor_type;location;lat;lon;timestamp;P1;durP1;ratioP1;P2;durP2;ratioP2
47555;SDS011;33291;46.222;26.460;2023-05-29T00:02:00;8.25;;;5.25;;
47555;SDS011;33291;46.222;26.460;2023-05-29T00:04:26;11.57;;;5.93;;
47555;SDS011;33291;46.222;26.460;2023-05-29T00:06:51;8.35;;;4.97;;
47555;SDS011;33291;46.222;26.460;2023-05-29T00:09:17;6.07;;;4.63;;
47555;SDS011;33291;46.222;26.460;2023-05-29T00:11:42;7.35;;;4.68;;
47555;SDS011;33291;46.222;26.460;2023-05-29T00:14:08;13.20;;;5.22;;
47555;SDS011;33291;46.222;26.460;2023-05-29T00:16:37;7.80;;;5.20;;
47555;SDS011;33291;46.222;26.460;2023-05-29T00:19:03;8.73;;;5.10;;
47555;SDS011;33291;46.222;26.460;2023-05-29T00:21:28;7.78;;;5.55;;
47555;SDS011;33291;46.222;26.460;2023-05-29T00:23:54;6.82;;;5.00;;
47555;SDS011;33291;46.222;26.460;2023-05-29T00:26:19;5.15;;;4.15;;
47555;SDS011;33291;46.222;26.460;2023-05-29T00:28:46;7.03;;;4.60;;
47555;SDS011;33291;46.222;26.460;2023-05-29T00:31:11;8.48;;;4.70;;
47555;SDS011;33291;46.222;26.460;2023-05-29T00:33:37;5.38;;;4.53;;
47555;SDS011;33291;46.222;26.460;2023-05-29T00:36:02;9.50;;;5.70;;
47555;SDS011;33291;46.222;26.460;2023-05-29T00:38:28;5.80;;;4.90;;
47555;SDS011;33291;46.222;26.460;2023-05-29T00:40:53;7.57;;;5.32;;
47555;SDS011;33291;46.222;26.460;2023-05-29T00:43:19;10.50;;;5.18;;
47555;SDS011;33291;46.222;26.460;2023-05-29T00:45:44;7.80;;;4.60;;
47555;SDS011;33291;46.222;26.460;2023-05-29T00:48:09;6.80;;;5.40;;
47555;SDS011;33291;46.222;26.460;2023-05-29T00:50:35;15.38;;;5.78;;
47555;SDS011;33291;46.222;26.460;2023-05-29T00:53:01;9.27;;;5.53;;
47555;SDS011;33291;46.222;26.460;2023-05-29T00:55:29;8.18;;;5.20;;
47555;SDS011;33291;46.222;26.460;2023-05-29T00:57:56;8.43;;;4.40;;
47555;SDS011;33291;46.222;26.460;2023-05-29T01:00:21;7.00;;;5.18;;
47555;SDS011;33291;46.222;26.460;2023-05-29T01:02:47;9.23;;;5.40;;
47555;SDS011;33291;46.222;26.460;2023-05-29T01:05:13;9.77;;;5.15;;
47555;SDS011;33291;46.222;26.460;2023-05-29T01:07:40;6.95;;;5.07;;
47555;SDS011;33291;46.222;26.460;2023-05-29T01:10:06;7.63;;;4.90;;
47555;SDS011;33291;46.222;26.460;2023-05-29T01:12:37;10.82;;;5.93;;
47555;SDS011;33291;46.222;26.460;2023-05-29T01:15:18;8.95;;;4.82;;
47555;SDS011;33291;46.222;26.460;2023-05-29T01:23:44;10.90;;;5.05;;
47555;SDS011;33291;46.222;26.460;2023-05-29T01:28:51;9.47;;;4.97;;
47555;SDS011;33291;46.222;26.460;2023-05-29T01:31:22;7.13;;;4.82;;
47555;SDS011;33291;46.222;26.460;2023-05-29T01:33:57;8.73;;;5.13;;
47555;SDS011;33291;46.222;26.460;2023-05-29T01:36:24;10.85;;;5.93;;
47555;SDS011;33291;46.222;26.460;2023-05-29T01:38:51;8.77;;;5.38;;
47555;SDS011;33291;46.222;26.460;2023-05-29T01:41:19;10.73;;;5.32;;
47555;SDS011;33291;46.222;26.460;2023-05-29T01:43:46;8.57;;;5.32;;
47555;SDS011;33291;46.222;26.460;2023-05-29T01:46:13;6.13;;;5.18;;
47555;SDS011;33291;46.222;26.460;2023-05-29T01:48:40;6.82;;;5.22;;
47555;SDS011;33291;46.222;26.460;2023-05-29T01:51:06;10.45;;;5.03;;
47555;SDS011;33291;46.222;26.460;2023-05-29T01:53:32;16.33;;;5.30;;
47555;SDS011;33291;46.222;26.460;2023-05-29T01:55:58;10.38;;;5.47;;
47555;SDS011;33291;46.222;26.460;2023-05-29T01:58:23;12.93;;;6.18;;
47555;SDS011;33291;46.222;26.460;2023-05-29T02:00:51;10.52;;;5.55;;
47555;SDS011;33291;46.222;26.460;2023-05-29T02:03:17;6.57;;;5.03;;
47555;SDS011;33291;46.222;26.460;2023-05-29T02:05:42;6.35;;;5.28;;
47555;SDS011;33291;46.222;26.460;2023-05-29T02:08:08;8.55;;;5.13;;
47555;SDS011;33291;46.222;26.460;2023-05-29T02:10:33;7.57;;;5.03;;
47555;SDS011;33291;46.222;26.460;2023-05-29T02:12:59;7.65;;;5.45;;
47555;SDS011;33291;46.222;26.460;2023-05-29T02:15:24;8.98;;;5.25;;
47555;SDS011;33291;46.222;26.460;2023-05-29T02:17:50;10.00;;;5.57;;
47555;SDS011;33291;46.222;26.460;2023-05-29T02:20:15;8.13;;;5.07;;
47555;SDS011;33291;46.222;26.460;2023-05-29T02:22:41;7.10;;;4.88;;
47555;SDS011;33291;46.222;26.460;2023-05-29T02:25:07;9.05;;;5.35;;
47555;SDS011;33291;46.222;26.460;2023-05-29T02:27:32;8.98;;;5.05;;
47555;SDS011;33291;46.222;26.460;2023-05-29T02:29:58;11.00;;;6.75;;
47555;SDS011;33291;46.222;26.460;2023-05-29T02:32:24;8.07;;;5.95;;
47555;SDS011;33291;46.222;26.460;2023-05-29T02:34:53;15.05;;;6.07;;
47555;SDS011;33291;46.222;26.460;2023-05-29T02:37:19;7.93;;;5.80;;
47555;SDS011;33291;46.222;26.460;2023-05-29T02:39:44;14.63;;;5.47;;
47555;SDS011;33291;46.222;26.460;2023-05-29T02:42:10;10.35;;;5.18;;
47555;SDS011;33291;46.222;26.460;2023-05-29T02:44:35;10.05;;;5.50;;
47555;SDS011;33291;46.222;26.460;2023-05-29T02:47:01;8.70;;;5.28;;
47555;SDS011;33291;46.222;26.460;2023-05-29T02:49:26;11.02;;;5.65;;
47555;SDS011;33291;46.222;26.460;2023-05-29T02:51:52;12.43;;;5.10;;
47555;SDS011;33291;46.222;26.460;2023-05-29T02:54:21;8.82;;;5.47;;
47555;SDS011;33291;46.222;26.460;2023-05-29T02:56:48;10.80;;;5.40;;
47555;SDS011;33291;46.222;26.460;2023-05-29T02:59:13;7.40;;;5.20;;
47555;SDS011;33291;46.222;26.460;2023-05-29T03:01:39;8.82;;;5.05;;
47555;SDS011;33291;46.222;26.460;2023-05-29T03:04:04;9.48;;;5.53;;
47555;SDS011;33291;46.222;26.460;2023-05-29T03:06:30;7.90;;;5.47;;
47555;SDS011;33291;46.222;26.460;2023-05-29T03:08:57;8.10;;;5.00;;
47555;SDS011;33291;46.222;26.460;2023-05-29T03:11:24;7.03;;;5.57;;
47555;SDS011;33291;46.222;26.460;2023-05-29T03:13:51;11.55;;;5.78;;
47555;SDS011;33291;46.222;26.460;2023-05-29T03:16:17;6.85;;;4.70;;
47555;SDS011;33291;46.222;26.460;2023-05-29T03:18:42;12.25;;;5.82;;
47555;SDS011;33291;46.222;26.460;2023-05-29T03:21:08;11.02;;;6.45;;
47555;SDS011;33291;46.222;26.460;2023-05-29T03:23:33;9.65;;;4.80;;
47555;SDS011;33291;46.222;26.460;2023-05-29T03:25:59;10.90;;;5.38;;
47555;SDS011;33291;46.222;26.460;2023-05-29T03:28:25;9.13;;;5.63;;
47555;SDS011;33291;46.222;26.460;2023-05-29T03:30:50;10.98;;;5.72;;
47555;SDS011;33291;46.222;26.460;2023-05-29T03:33:16;12.93;;;5.43;;
47555;SDS011;33291;46.222;26.460;2023-05-29T03:35:42;8.77;;;4.78;;
47555;SDS011;33291;46.222;26.460;2023-05-29T03:38:07;9.05;;;5.15;;
47555;SDS011;33291;46.222;26.460;2023-05-29T03:40:33;12.35;;;6.15;;
47555;SDS011;33291;46.222;26.460;2023-05-29T03:42:58;7.43;;;4.55;;
47555;SDS011;33291;46.222;26.460;2023-05-29T03:45:23;8.30;;;5.28;;
47555;SDS011;33291;46.222;26.460;2023-05-29T03:47:49;7.38;;;4.93;;
47555;SDS011;33291;46.222;26.460;2023-05-29T03:50:15;8.80;;;5.47;;
47555;SDS011;33291;46.222;26.460;2023-05-29T03:52:41;7.72;;;5.07;;
47555;SDS011;33291;46.222;26.460;2023-05-29T03:55:08;6.93;;;5.53;;
47555;SDS011;33291;46.222;26.460;2023-05-29T03:57:38;9.68;;;5.68;;
47555;SDS011;33291;46.222;26.460;2023-05-29T04:00:06;10.32;;;5.82;;
47555;SDS011;33291;46.222;26.460;2023-05-29T04:02:39;7.28;;;5.53;;
47555;SDS011;33291;46.222;26.460;2023-05-29T04:05:06;9.57;;;5.10;;
47555;SDS011;33291;46.222;26.460;2023-05-29T04:07:35;7.30;;;5.57;;
47555;SDS011;33291;46.222;26.460;2023-05-29T04:10:05;13.27;;;5.85;;
47555;SDS011;33291;46.222;26.460;2023-05-29T04:12:31;11.27;;;5.53;;
47555;SDS011;33291;46.222;26.460;2023-05-29T04:14:57;9.73;;;5.60;;
47555;SDS011;33291;46.222;26.460;2023-05-29T04:17:23;7.90;;;5.20;;
47555;SDS011;33291;46.222;26.460;2023-05-29T04:19:49;11.25;;;5.65;;
47555;SDS011;33291;46.222;26.460;2023-05-29T04:22:14;7.40;;;5.25;;
47555;SDS011;33291;46.222;26.460;2023-05-29T04:24:40;6.88;;;4.93;;
47555;SDS011;33291;46.222;26.460;2023-05-29T04:27:07;12.90;;;5.72;;
47555;SDS011;33291;46.222;26.460;2023-05-29T04:29:34;9.32;;;5.45;;
47555;SDS011;33291;46.222;26.460;2023-05-29T04:32:00;10.50;;;5.90;;
47555;SDS011;33291;46.222;26.460;2023-05-29T04:34:28;8.27;;;5.60;;
47555;SDS011;33291;46.222;26.460;2023-05-29T04:36:55;10.20;;;5.47;;
47555;SDS011;33291;46.222;26.460;2023-05-29T04:39:23;7.82;;;5.82;;
47555;SDS011;33291;46.222;26.460;2023-05-29T04:41:49;7.82;;;5.20;;
47555;SDS011;33291;46.222;26.460;2023-05-29T04:44:16;8.30;;;5.65;;
47555;SDS011;33291;46.222;26.460;2023-05-29T04:46:42;8.45;;;5.57;;
47555;SDS011;33291;46.222;26.460;2023-05-29T04:49:09;11.30;;;5.95;;
47555;SDS011;33291;46.222;26.460;2023-05-29T04:51:35;10.38;;;5.75;;
47555;SDS011;33291;46.222;26.460;2023-05-29T04:54:01;10.48;;;5.68;;
47555;SDS011;33291;46.222;26.460;2023-05-29T04:56:27;7.35;;;5.20;;
47555;SDS011;33291;46.222;26.460;2023-05-29T04:58:53;10.13;;;5.28;;
47555;SDS011;33291;46.222;26.460;2023-05-29T05:01:18;16.30;;;5.75;;
47555;SDS011;33291;46.222;26.460;2023-05-29T05:03:44;7.80;;;5.28;;
47555;SDS011;33291;46.222;26.460;2023-05-29T05:06:10;8.25;;;5.40;;
47555;SDS011;33291;46.222;26.460;2023-05-29T05:08:37;6.97;;;5.25;;
47555;SDS011;33291;46.222;26.460;2023-05-29T05:11:03;10.32;;;5.55;;
47555;SDS011;33291;46.222;26.460;2023-05-29T05:13:29;9.00;;;5.43;;
47555;SDS011;33291;46.222;26.460;2023-05-29T05:15:54;9.68;;;5.53;;
47555;SDS011;33291;46.222;26.460;2023-05-29T05:18:20;7.97;;;5.82;;
47555;SDS011;33291;46.222;26.460;2023-05-29T05:20:46;10.90;;;5.28;;
47555;SDS011;33291;46.222;26.460;2023-05-29T05:23:11;7.57;;;5.55;;
47555;SDS011;33291;46.222;26.460;2023-05-29T05:25:37;7.65;;;4.45;;
47555;SDS011;33291;46.222;26.460;2023-05-29T05:28:03;8.70;;;5.50;;
47555;SDS011;33291;46.222;26.460;2023-05-29T05:30:30;8.32;;;5.22;;
47555;SDS011;33291;46.222;26.460;2023-05-29T05:32:55;10.95;;;5.55;;
47555;SDS011;33291;46.222;26.460;2023-05-29T05:35:21;5.95;;;5.03;;
47555;SDS011;33291;46.222;26.460;2023-05-29T05:37:47;12.25;;;5.57;;
47555;SDS011;33291;46.222;26.460;2023-05-29T05:40:12;17.38;;;6.05;;
47555;SDS011;33291;46.222;26.460;2023-05-29T05:42:38;11.40;;;5.15;;
47555;SDS011;33291;46.222;26.460;2023-05-29T05:45:04;9.73;;;5.60;;
47555;SDS011;33291;46.222;26.460;2023-05-29T05:47:31;11.27;;;5.07;;
47555;SDS011;33291;46.222;26.460;2023-05-29T05:49:57;6.07;;;4.47;;
47555;SDS011;33291;46.222;26.460;2023-05-29T05:52:23;9.73;;;4.78;;
47555;SDS011;33291;46.222;26.460;2023-05-29T05:54:49;11.30;;;5.88;;
47555;SDS011;33291;46.222;26.460;2023-05-29T05:57:15;10.05;;;5.28;;
47555;SDS011;33291;46.222;26.460;2023-05-29T05:59:40;8.27;;;5.70;;
47555;SDS011;33291;46.222;26.460;2023-05-29T06:02:06;14.13;;;4.93;;
47555;SDS011;33291;46.222;26.460;2023-05-29T06:04:31;9.38;;;5.68;;
47555;SDS011;33291;46.222;26.460;2023-05-29T06:06:57;7.25;;;5.15;;
47555;SDS011;33291;46.222;26.460;2023-05-29T06:09:22;7.70;;;4.75;;
47555;SDS011;33291;46.222;26.460;2023-05-29T06:11:48;7.25;;;4.57;;
47555;SDS011;33291;46.222;26.460;2023-05-29T06:14:14;7.78;;;5.07;;
47555;SDS011;33291;46.222;26.460;2023-05-29T06:16:40;10.68;;;5.03;;
47555;SDS011;33291;46.222;26.460;2023-05-29T06:19:05;8.73;;;4.85;;
47555;SDS011;33291;46.222;26.460;2023-05-29T06:21:31;11.13;;;4.85;;
47555;SDS011;33291;46.222;26.460;2023-05-29T06:23:57;9.60;;;4.70;;
47555;SDS011;33291;46.222;26.460;2023-05-29T06:26:22;9.68;;;5.10;;
47555;SDS011;33291;46.222;26.460;2023-05-29T06:28:50;9.32;;;4.72;;
47555;SDS011;33291;46.222;26.460;2023-05-29T06:31:16;9.77;;;4.60;;
47555;SDS011;33291;46.222;26.460;2023-05-29T06:33:41;12.07;;;4.57;;
47555;SDS011;33291;46.222;26.460;2023-05-29T06:36:07;6.50;;;4.15;;
47555;SDS011;33291;46.222;26.460;2023-05-29T06:38:33;9.43;;;3.88;;
47555;SDS011;33291;46.222;26.460;2023-05-29T06:40:58;9.38;;;4.60;;
47555;SDS011;33291;46.222;26.460;2023-05-29T06:43:24;14.60;;;4.28;;
47555;SDS011;33291;46.222;26.460;2023-05-29T06:45:49;7.72;;;4.00;;
47555;SDS011;33291;46.222;26.460;2023-05-29T06:48:15;10.05;;;4.28;;
47555;SDS011;33291;46.222;26.460;2023-05-29T06:50:40;7.47;;;3.88;;
47555;SDS011;33291;46.222;26.460;2023-05-29T06:53:06;13.50;;;3.90;;
47555;SDS011;33291;46.222;26.460;2023-05-29T06:55:31;8.10;;;3.55;;
47555;SDS011;33291;46.222;26.460;2023-05-29T06:57:56;5.85;;;3.35;;
47555;SDS011;33291;46.222;26.460;2023-05-29T07:00:22;9.38;;;3.17;;
47555;SDS011;33291;46.222;26.460;2023-05-29T07:02:48;4.88;;;3.17;;
47555;SDS011;33291;46.222;26.460;2023-05-29T07:05:13;13.55;;;3.97;;
47555;SDS011;33291;46.222;26.460;2023-05-29T07:07:39;6.07;;;3.13;;
47555;SDS011;33291;46.222;26.460;2023-05-29T07:10:04;12.05;;;3.70;;
47555;SDS011;33291;46.222;26.460;2023-05-29T07:12:31;7.35;;;3.05;;
47555;SDS011;33291;46.222;26.460;2023-05-29T07:14:56;11.95;;;5.07;;
47555;SDS011;33291;46.222;26.460;2023-05-29T07:17:22;8.77;;;3.30;;
47555;SDS011;33291;46.222;26.460;2023-05-29T07:19:47;7.78;;;3.88;;
47555;SDS011;33291;46.222;26.460;2023-05-29T07:22:14;4.82;;;2.78;;
47555;SDS011;33291;46.222;26.460;2023-05-29T07:24:40;5.95;;;3.72;;
47555;SDS011;33291;46.222;26.460;2023-05-29T07:27:06;9.88;;;3.90;;
47555;SDS011;33291;46.222;26.460;2023-05-29T07:29:31;8.48;;;4.10;;
47555;SDS011;33291;46.222;26.460;2023-05-29T07:31:57;4.70;;;2.90;;
47555;SDS011;33291;46.222;26.460;2023-05-29T07:34:22;10.75;;;4.10;;
47555;SDS011;33291;46.222;26.460;2023-05-29T07:39:40;8.27;;;3.58;;
47555;SDS011;33291;46.222;26.460;2023-05-29T07:42:06;10.93;;;3.95;;
47555;SDS011;33291;46.222;26.460;2023-05-29T07:44:31;11.55;;;4.07;;
47555;SDS011;33291;46.222;26.460;2023-05-29T07:46:57;6.00;;;3.28;;
47555;SDS011;33291;46.222;26.460;2023-05-29T07:49:22;7.25;;;3.58;;
47555;SDS011;33291;46.222;26.460;2023-05-29T07:51:48;6.68;;;3.20;;
47555;SDS011;33291;46.222;26.460;2023-05-29T07:54:13;6.28;;;3.22;;
47555;SDS011;33291;46.222;26.460;2023-05-29T07:56:42;8.77;;;3.42;;
47555;SDS011;33291;46.222;26.460;2023-05-29T07:59:09;6.30;;;3.10;;
47555;SDS011;33291;46.222;26.460;2023-05-29T08:01:35;7.43;;;3.30;;
47555;SDS011;33291;46.222;26.460;2023-05-29T08:04:00;5.25;;;3.03;;
47555;SDS011;33291;46.222;26.460;2023-05-29T08:06:26;8.30;;;3.45;;
47555;SDS011;33291;46.222;26.460;2023-05-29T08:08:51;6.50;;;3.08;;
47555;SDS011;33291;46.222;26.460;2023-05-29T08:11:17;9.73;;;3.05;;
47555;SDS011;33291;46.222;26.460;2023-05-29T08:13:43;6.43;;;2.97;;
47555;SDS011;33291;46.222;26.460;2023-05-29T08:16:09;10.55;;;2.92;;
47555;SDS011;33291;46.222;26.460;2023-05-29T08:18:34;9.20;;;3.65;;
47555;SDS011;33291;46.222;26.460;2023-05-29T08:21:00;5.97;;;3.20;;
47555;SDS011;33291;46.222;26.460;2023-05-29T08:23:25;8.00;;;3.00;;
47555;SDS011;33291;46.222;26.460;2023-05-29T08:25:51;14.95;;;3.72;;
47555;SDS011;33291;46.222;26.460;2023-05-29T08:28:17;9.57;;;4.00;;
47555;SDS011;33291;46.222;26.460;2023-05-29T08:30:42;10.73;;;3.30;;
47555;SDS011;33291;46.222;26.460;2023-05-29T08:33:08;9.73;;;3.53;;
47555;SDS011;33291;46.222;26.460;2023-05-29T08:35:33;8.25;;;3.13;;
47555;SDS011;33291;46.222;26.460;2023-05-29T08:37:59;5.65;;;3.80;;
47555;SDS011;33291;46.222;26.460;2023-05-29T08:40:25;11.55;;;3.05;;
47555;SDS011;33291;46.222;26.460;2023-05-29T08:42:54;5.50;;;3.03;;
47555;SDS011;33291;46.222;26.460;2023-05-29T08:45:38;10.35;;;3.50;;
47555;SDS011;33291;46.222;26.460;2023-05-29T08:48:08;8.07;;;3.72;;
47555;SDS011;33291;46.222;26.460;2023-05-29T08:50:35;6.65;;;3.25;;
47555;SDS011;33291;46.222;26.460;2023-05-29T08:53:01;5.97;;;3.13;;
47555;SDS011;33291;46.222;26.460;2023-05-29T08:55:27;8.63;;;3.33;;
47555;SDS011;33291;46.222;26.460;2023-05-29T08:57:53;6.15;;;3.47;;
47555;SDS011;33291;46.222;26.460;2023-05-29T09:00:18;13.43;;;3.20;;
47555;SDS011;33291;46.222;26.460;2023-05-29T09:02:47;9.20;;;3.20;;
47555;SDS011;33291;46.222;26.460;2023-05-29T09:05:12;10.82;;;3.78;;
47555;SDS011;33291;46.222;26.460;2023-05-29T09:07:38;6.78;;;3.28;;
47555;SDS011;33291;46.222;26.460;2023-05-29T09:10:05;5.22;;;3.22;;
47555;SDS011;33291;46.222;26.460;2023-05-29T09:12:32;8.55;;;3.97;;
47555;SDS011;33291;46.222;26.460;2023-05-29T09:14:58;9.65;;;3.25;;
47555;SDS011;33291;46.222;26.460;2023-05-29T09:17:24;8.20;;;3.75;;
47555;SDS011;33291;46.222;26.460;2023-05-29T09:19:55;8.80;;;3.25;;
47555;SDS011;33291;46.222;26.460;2023-05-29T09:22:20;13.70;;;4.03;;
47555;SDS011;33291;46.222;26.460;2023-05-29T09:24:46;9.00;;;3.05;;
47555;SDS011;33291;46.222;26.460;2023-05-29T09:27:13;7.30;;;3.60;;
47555;SDS011;33291;46.222;26.460;2023-05-29T09:29:39;5.57;;;2.92;;
47555;SDS011;33291;46.222;26.460;2023-05-29T09:32:13;10.18;;;4.10;;
47555;SDS011;33291;46.222;26.460;2023-05-29T09:34:41;10.10;;;3.45;;
47555;SDS011;33291;46.222;26.460;2023-05-29T09:37:07;4.85;;;2.95;;
47555;SDS011;33291;46.222;26.460;2023-05-29T09:39:54;7.15;;;3.22;;
47555;SDS011;33291;46.222;26.460;2023-05-29T09:42:19;5.25;;;3.50;;
47555;SDS011;33291;46.222;26.460;2023-05-29T09:44:49;7.22;;;3.45;;
47555;SDS011;33291;46.222;26.460;2023-05-29T09:47:18;6.47;;;4.00;;
47555;SDS011;33291;46.222;26.460;2023-05-29T09:49:45;6.72;;;3.90;;
47555;SDS011;33291;46.222;26.460;2023-05-29T09:52:13;9.77;;;3.70;;
47555;SDS011;33291;46.222;26.460;2023-05-29T09:54:43;13.63;;;3.25;;
47555;SDS011;33291;46.222;26.460;2023-05-29T09:57:12;7.82;;;4.00;;
47555;SDS011;33291;46.222;26.460;2023-05-29T09:59:40;6.57;;;3.47;;
47555;SDS011;33291;46.222;26.460;2023-05-29T10:02:09;7.63;;;3.65;;
47555;SDS011;33291;46.222;26.460;2023-05-29T10:04:37;7.18;;;4.10;;
47555;SDS011;33291;46.222;26.460;2023-05-29T10:07:09;10.20;;;3.97;;
47555;SDS011;33291;46.222;26.460;2023-05-29T10:09:45;5.38;;;3.10;;
47555;SDS011;33291;46.222;26.460;2023-05-29T10:12:15;6.85;;;3.67;;
47555;SDS011;33291;46.222;26.460;2023-05-29T10:14:46;7.47;;;3.22;;
47555;SDS011;33291;46.222;26.460;2023-05-29T10:17:15;8.25;;;4.07;;
47555;SDS011;33291;46.222;26.460;2023-05-29T10:19:47;7.72;;;3.47;;
47555;SDS011;33291;46.222;26.460;2023-05-29T10:22:16;8.20;;;4.00;;
47555;SDS011;33291;46.222;26.460;2023-05-29T10:24:45;14.73;;;3.38;;
47555;SDS011;33291;46.222;26.460;2023-05-29T10:27:13;9.05;;;3.88;;
47555;SDS011;33291;46.222;26.460;2023-05-29T10:29:59;7.50;;;3.33;;
47555;SDS011;33291;46.222;26.460;2023-05-29T10:32:47;6.70;;;3.45;;
47555;SDS011;33291;46.222;26.460;2023-05-29T10:35:44;3.75;;;2.60;;
47555;SDS011;33291;46.222;26.460;2023-05-29T10:38:14;5.50;;;2.80;;
47555;SDS011;33291;46.222;26.460;2023-05-29T10:40:44;7.07;;;3.35;;
47555;SDS011;33291;46.222;26.460;2023-05-29T10:43:31;7.80;;;3.10;;
47555;SDS011;33291;46.222;26.460;2023-05-29T10:46:00;6.82;;;2.90;;
47555;SDS011;33291;46.222;26.460;2023-05-29T10:50:56;8.68;;;4.00;;
47555;SDS011;33291;46.222;26.460;2023-05-29T10:53:25;8.05;;;3.13;;
47555;SDS011;33291;46.222;26.460;2023-05-29T10:55:55;5.97;;;3.30;;
47555;SDS011;33291;46.222;26.460;2023-05-29T10:58:21;5.53;;;2.80;;
47555;SDS011;33291;46.222;26.460;2023-05-29T11:00:49;10.52;;;3.20;;
47555;SDS011;33291;46.222;26.460;2023-05-29T11:03:22;6.65;;;3.30;;
47555;SDS011;33291;46.222;26.460;2023-05-29T11:05:59;11.48;;;3.38;;
47555;SDS011;33291;46.222;26.460;2023-05-29T11:08:41;4.28;;;2.67;;
47555;SDS011;33291;46.222;26.460;2023-05-29T11:11:14;8.68;;;2.97;;
47555;SDS011;33291;46.222;26.460;2023-05-29T11:13:41;9.23;;;3.28;;
47555;SDS011;33291;46.222;26.460;2023-05-29T11:16:20;9.48;;;3.53;;
47555;SDS011;33291;46.222;26.460;2023-05-29T11:19:05;12.63;;;2.72;;
47555;SDS011;33291;46.222;26.460;2023-05-29T11:24:27;5.82;;;2.78;;
47555;SDS011;33291;46.222;26.460;2023-05-29T11:26:54;7.78;;;3.33;;
47555;SDS011;33291;46.222;26.460;2023-05-29T11:29:24;10.00;;;3.70;;
47555;SDS011;33291;46.222;26.460;2023-05-29T11:31:57;8.98;;;3.53;;
47555;SDS011;33291;46.222;26.460;2023-05-29T11:34:27;6.88;;;3.50;;
47555;SDS011;33291;46.222;26.460;2023-05-29T11:36:55;6.55;;;3.28;;
47555;SDS011;33291;46.222;26.460;2023-05-29T11:39:22;6.63;;;3.25;;
47555;SDS011;33291;46.222;26.460;2023-05-29T11:41:51;9.10;;;3.03;;
47555;SDS011;33291;46.222;26.460;2023-05-29T11:44:19;5.68;;;3.03;;
47555;SDS011;33291;46.222;26.460;2023-05-29T11:46:45;9.20;;;3.38;;
47555;SDS011;33291;46.222;26.460;2023-05-29T11:49:11;9.02;;;3.30;;
47555;SDS011;33291;46.222;26.460;2023-05-29T11:51:37;7.47;;;3.35;;
47555;SDS011;33291;46.222;26.460;2023-05-29T11:54:02;13.68;;;3.30;;
47555;SDS011;33291;46.222;26.460;2023-05-29T11:56:28;11.52;;;3.83;;
47555;SDS011;33291;46.222;26.460;2023-05-29T11:58:57;6.78;;;2.72;;
47555;SDS011;33291;46.222;26.460;2023-05-29T12:01:25;5.70;;;3.28;;
47555;SDS011;33291;46.222;26.460;2023-05-29T12:03:51;8.35;;;3.05;;
47555;SDS011;33291;46.222;26.460;2023-05-29T12:06:30;6.57;;;3.65;;
47555;SDS011;33291;46.222;26.460;2023-05-29T12:08:58;10.52;;;3.20;;
47555;SDS011;33291;46.222;26.460;2023-05-29T12:11:23;8.13;;;3.38;;
47555;SDS011;33291;46.222;26.460;2023-05-29T12:13:55;4.70;;;2.97;;
47555;SDS011;33291;46.222;26.460;2023-05-29T12:16:24;6.55;;;3.88;;
47555;SDS011;33291;46.222;26.460;2023-05-29T12:18:51;6.78;;;3.45;;
47555;SDS011;33291;46.222;26.460;2023-05-29T12:21:17;6.68;;;4.05;;
47555;SDS011;33291;46.222;26.460;2023-05-29T12:23:42;5.80;;;3.10;;
47555;SDS011;33291;46.222;26.460;2023-05-29T12:26:08;9.85;;;3.75;;
47555;SDS011;33291;46.222;26.460;2023-05-29T12:28:34;8.73;;;3.88;;
47555;SDS011;33291;46.222;26.460;2023-05-29T12:30:59;6.82;;;3.00;;
47555;SDS011;33291;46.222;26.460;2023-05-29T12:33:25;11.45;;;3.33;;
47555;SDS011;33291;46.222;26.460;2023-05-29T12:35:53;4.72;;;2.83;;
47555;SDS011;33291;46.222;26.460;2023-05-29T12:38:18;7.40;;;3.20;;
47555;SDS011;33291;46.222;26.460;2023-05-29T12:40:47;4.85;;;3.15;;
47555;SDS011;33291;46.222;26.460;2023-05-29T12:43:14;5.82;;;3.03;;
47555;SDS011;33291;46.222;26.460;2023-05-29T12:45:39;7.45;;;3.42;;
47555;SDS011;33291;46.222;26.460;2023-05-29T12:48:05;9.15;;;3.90;;
47555;SDS011;33291;46.222;26.460;2023-05-29T12:50:38;6.00;;;2.88;;
47555;SDS011;33291;46.222;26.460;2023-05-29T12:55:34;6.40;;;3.60;;
47555;SDS011;33291;46.222;26.460;2023-05-29T12:58:04;5.10;;;3.50;;
47555;SDS011;33291;46.222;26.460;2023-05-29T13:00:31;8.13;;;3.72;;
47555;SDS011;33291;46.222;26.460;2023-05-29T13:02:58;5.38;;;3.22;;
47555;SDS011;33291;46.222;26.460;2023-05-29T13:05:24;8.20;;;3.88;;
47555;SDS011;33291;46.222;26.460;2023-05-29T13:07:49;7.72;;;3.67;;
47555;SDS011;33291;46.222;26.460;2023-05-29T13:10:16;8.05;;;3.63;;
47555;SDS011;33291;46.222;26.460;2023-05-29T13:12:42;4.75;;;3.42;;
47555;SDS011;33291;46.222;26.460;2023-05-29T13:15:09;7.18;;;3.45;;
47555;SDS011;33291;46.222;26.460;2023-05-29T13:17:35;12.43;;;3.78;;
47555;SDS011;33291;46.222;26.460;2023-05-29T13:20:01;7.97;;;3.53;;
47555;SDS011;33291;46.222;26.460;2023-05-29T13:22:26;8.68;;;3.30;;
47555;SDS011;33291;46.222;26.460;2023-05-29T13:24:59;5.47;;;2.78;;
47555;SDS011;33291;46.222;26.460;2023-05-29T13:27:25;9.15;;;3.65;;
47555;SDS011;33291;46.222;26.460;2023-05-29T13:29:52;4.70;;;3.53;;
47555;SDS011;33291;46.222;26.460;2023-05-29T13:32:18;5.65;;;2.97;;
47555;SDS011;33291;46.222;26.460;2023-05-29T13:34:43;11.75;;;3.17;;
47555;SDS011;33291;46.222;26.460;2023-05-29T13:37:09;9.52;;;3.08;;
47555;SDS011;33291;46.222;26.460;2023-05-29T13:39:35;11.70;;;3.67;;
47555;SDS011;33291;46.222;26.460;2023-05-29T13:42:00;9.10;;;2.90;;
47555;SDS011;33291;46.222;26.460;2023-05-29T13:44:26;4.90;;;3.08;;
47555;SDS011;33291;46.222;26.460;2023-05-29T13:46:51;7.68;;;3.60;;
47555;SDS011;33291;46.222;26.460;2023-05-29T13:49:17;8.30;;;3.20;;
47555;SDS011;33291;46.222;26.460;2023-05-29T13:51:42;8.38;;;3.63;;
47555;SDS011;33291;46.222;26.460;2023-05-29T13:54:10;9.88;;;3.97;;
47555;SDS011;33291;46.222;26.460;2023-05-29T13:56:35;8.15;;;3.60;;
47555;SDS011;33291;46.222;26.460;2023-05-29T13:59:01;5.28;;;3.25;;
47555;SDS011;33291;46.222;26.460;2023-05-29T14:01:30;8.45;;;3.38;;
47555;SDS011;33291;46.222;26.460;2023-05-29T14:03:56;9.60;;;3.83;;
47555;SDS011;33291;46.222;26.460;2023-05-29T14:06:21;9.40;;;3.45;;
47555;SDS011;33291;46.222;26.460;2023-05-29T14:08:47;7.00;;;3.92;;
47555;SDS011;33291;46.222;26.460;2023-05-29T14:11:12;8.00;;;3.72;;
47555;SDS011;33291;46.222;26.460;2023-05-29T14:13:38;6.80;;;2.85;;
47555;SDS011;33291;46.222;26.460;2023-05-29T14:16:03;7.13;;;2.95;;
47555;SDS011;33291;46.222;26.460;2023-05-29T14:18:29;6.85;;;3.80;;
47555;SDS011;33291;46.222;26.460;2023-05-29T14:20:54;7.90;;;2.70;;
47555;SDS011;33291;46.222;26.460;2023-05-29T14:23:20;7.30;;;2.85;;
47555;SDS011;33291;46.222;26.460;2023-05-29T14:25:45;6.47;;;3.00;;
47555;SDS011;33291;46.222;26.460;2023-05-29T14:28:11;6.18;;;2.90;;
47555;SDS011;33291;46.222;26.460;2023-05-29T14:30:37;6.55;;;2.75;;
47555;SDS011;33291;46.222;26.460;2023-05-29T14:33:03;10.45;;;3.45;;
47555;SDS011;33291;46.222;26.460;2023-05-29T14:35:29;8.48;;;3.60;;
47555;SDS011;33291;46.222;26.460;2023-05-29T14:37:56;7.75;;;3.08;;
47555;SDS011;33291;46.222;26.460;2023-05-29T14:40:21;10.05;;;2.97;;
47555;SDS011;33291;46.222;26.460;2023-05-29T14:42:47;8.18;;;3.20;;
47555;SDS011;33291;46.222;26.460;2023-05-29T14:45:13;7.50;;;3.03;;
47555;SDS011;33291;46.222;26.460;2023-05-29T14:47:39;7.50;;;3.60;;
47555;SDS011;33291;46.222;26.460;2023-05-29T14:50:05;7.55;;;2.72;;